createdAt,value
2023-09-11T00:04:50.673Z,84.33
2023-09-11T00:09:53.683Z,84.64
2023-09-11T00:14:56.864Z,84.84
2023-09-11T00:20:00.149Z,84.93
2023-09-11T00:25:03.467Z,85.10
2023-09-11T00:30:07.756Z,85.37
2023-09-11T00:35:10.858Z,85.35
2023-09-11T00:40:14.076Z,84.97
2023-09-11T00:45:17.280Z,85.21
2023-09-11T00:50:20.967Z,85.23
2023-09-11T00:55:24.638Z,85.18
2023-09-11T01:00:27.896Z,85.37
2023-09-11T01:05:32.050Z,84.85
2023-09-11T01:10:36.237Z,83.67
2023-09-11T01:15:44.331Z,83.78
2023-09-11T01:20:50.047Z,85.06
2023-09-11T01:26:13.392Z,86.12
2023-09-11T01:31:19.266Z,85.54
2023-09-11T01:36:22.367Z,86.04
2023-09-11T01:41:36.527Z,86.30
2023-09-11T01:46:39.958Z,86.33
2023-09-11T01:51:43.696Z,86.75
2023-09-11T01:56:47.050Z,86.65
2023-09-11T02:01:50.157Z,86.69
2023-09-11T02:06:53.417Z,87.40
2023-09-11T02:11:56.434Z,87.87
2023-09-11T02:17:04.345Z,87.39
2023-09-11T02:22:07.556Z,87.30
2023-09-11T02:27:10.563Z,87.15
2023-09-11T02:32:13.581Z,87.21
2023-09-11T02:37:16.684Z,87.27
2023-09-11T02:42:19.687Z,88.74
2023-09-11T02:47:22.815Z,89.54
2023-09-11T02:52:25.903Z,88.84
2023-09-11T02:57:28.909Z,88.43
2023-09-11T03:02:32.375Z,88.59
2023-09-11T03:07:35.536Z,89.32
2023-09-11T03:12:38.647Z,89.59
2023-09-11T03:17:42.002Z,89.97
2023-09-11T03:22:45.992Z,89.62
2023-09-11T03:27:49.120Z,89.42
2023-09-11T03:32:52.503Z,89.13
2023-09-11T03:37:56.341Z,89.18
2023-09-11T03:42:59.349Z,89.08
2023-09-11T03:48:02.463Z,89.10
2023-09-11T03:53:05.681Z,89.03
2023-09-11T03:58:08.676Z,88.81
2023-09-11T04:03:11.805Z,89.69
2023-09-11T04:08:15.509Z,89.64
2023-09-11T04:13:18.621Z,89.58
2023-09-11T04:18:21.808Z,89.76
2023-09-11T04:23:25.092Z,90.02
2023-09-11T04:28:28.373Z,89.84
2023-09-11T04:33:31.801Z,90.48
2023-09-11T04:38:35.142Z,90.35
2023-09-11T04:43:38.421Z,90.29
2023-09-11T04:48:42.104Z,88.09
2023-09-11T04:53:45.913Z,86.37
2023-09-11T04:58:49.518Z,81.67
2023-09-11T05:03:53.089Z,77.57
2023-09-11T05:09:11.550Z,74.41
2023-09-11T05:14:15.999Z,70.23
2023-09-11T05:19:19.245Z,67.46
2023-09-11T05:24:22.424Z,61.48
2023-09-11T05:29:25.611Z,59.23
2023-09-11T05:34:28.746Z,56.09
2023-09-11T05:39:33.593Z,54.61
2023-09-11T05:44:36.745Z,53.98
2023-09-11T05:49:40.013Z,53.79
2023-09-11T05:54:43.332Z,51.20
2023-09-11T05:59:47.509Z,50.84
2023-09-11T06:04:50.741Z,49.12
2023-09-11T06:09:53.614Z,48.08
2023-09-11T06:14:56.930Z,46.90
2023-09-11T06:20:00.370Z,46.22
2023-09-11T06:25:05.861Z,45.24
2023-09-11T06:30:10.181Z,44.33
2023-09-11T06:35:13.425Z,43.54
2023-09-11T06:40:17.046Z,43.29
2023-09-11T06:45:20.254Z,41.37
2023-09-11T06:50:23.369Z,40.91
2023-09-11T06:55:26.482Z,37.84
2023-09-11T07:00:30.115Z,38.30
2023-09-11T07:05:33.647Z,35.76
2023-09-11T07:10:41.563Z,37.40
2023-09-11T07:15:45.087Z,36.36
2023-09-11T07:20:48.403Z,35.48
2023-09-11T07:25:58.134Z,36.33
2023-09-11T07:31:01.144Z,36.18
2023-09-11T07:36:04.777Z,35.09
2023-09-11T07:41:07.867Z,34.13
2023-09-11T07:46:11.113Z,33.88
2023-09-11T07:51:14.255Z,33.57
2023-09-11T07:56:17.402Z,33.74
2023-09-11T08:01:20.603Z,33.40
2023-09-11T08:06:26.775Z,32.93
2023-09-11T08:11:29.911Z,32.73
2023-09-11T08:16:33.139Z,32.60
2023-09-11T08:21:36.334Z,32.69
2023-09-11T08:26:40.037Z,32.07
2023-09-11T08:31:43.468Z,32.29
2023-09-11T08:36:46.578Z,31.78
2023-09-11T08:41:53.046Z,34.08
2023-09-11T08:47:00.085Z,36.88
2023-09-11T08:52:05.259Z,38.87
2023-09-11T08:57:11.539Z,40.61
2023-09-11T09:02:15.863Z,41.74
2023-09-11T09:07:19.859Z,42.96
2023-09-11T09:12:23.190Z,43.48
2023-09-11T09:17:26.301Z,43.77
2023-09-11T09:22:29.404Z,44.06
2023-09-11T09:27:37.336Z,45.30
2023-09-11T09:32:40.642Z,44.97
2023-09-11T09:37:53.283Z,45.38
2023-09-11T09:42:56.486Z,45.70
2023-09-11T09:48:26.059Z,45.40
2023-09-11T09:53:44.314Z,45.64
2023-09-11T09:58:48.001Z,45.71
2023-09-11T10:03:53.299Z,45.16
2023-09-11T10:09:09.059Z,44.24
2023-09-11T10:14:12.598Z,44.36
2023-09-11T10:19:18.921Z,44.74
2023-09-11T10:24:22.890Z,44.79
2023-09-11T10:29:31.143Z,45.11
2023-09-11T10:34:34.387Z,45.29
2023-09-11T10:39:38.948Z,45.03
2023-09-11T10:44:42.037Z,44.68
2023-09-11T10:49:45.112Z,44.31
2023-09-11T10:54:49.143Z,44.65
2023-09-11T10:59:52.374Z,45.20
2023-09-11T11:04:55.453Z,44.24
2023-09-11T11:10:02.933Z,43.17
2023-09-11T11:15:27.052Z,43.72
2023-09-11T11:20:30.385Z,43.10
2023-09-11T11:25:34.211Z,42.51
2023-09-11T11:30:38.907Z,42.87
2023-09-11T11:35:48.033Z,43.26
2023-09-11T11:40:52.751Z,43.53
2023-09-11T11:45:57.296Z,42.84
2023-09-11T11:51:00.537Z,43.10
2023-09-11T11:56:05.276Z,43.21
2023-09-11T12:01:08.312Z,43.38
2023-09-11T12:06:11.826Z,43.13
2023-09-11T12:11:15.110Z,43.36
2023-09-11T12:16:18.469Z,43.42
2023-09-11T12:21:22.575Z,43.35
2023-09-11T12:26:26.159Z,42.88
2023-09-11T12:31:29.300Z,42.27
2023-09-11T12:36:32.807Z,42.26
2023-09-11T12:41:36.160Z,43.04
2023-09-11T12:46:39.345Z,43.76
2023-09-11T12:51:42.833Z,43.47
2023-09-11T12:56:45.982Z,42.56
2023-09-11T13:01:54.986Z,42.36
2023-09-11T13:06:58.313Z,42.42
2023-09-11T13:12:01.552Z,42.18
2023-09-11T13:17:05.346Z,42.37
2023-09-11T13:22:08.556Z,41.60
2023-09-11T13:27:12.176Z,41.05
2023-09-11T13:32:15.689Z,41.96
2023-09-11T13:37:18.907Z,42.11
2023-09-11T13:42:25.710Z,42.37
2023-09-11T13:47:29.896Z,42.63
2023-09-11T13:52:33.047Z,42.43
2023-09-11T13:57:36.915Z,42.35
2023-09-11T14:02:40.483Z,42.32
2023-09-11T14:07:43.807Z,41.96
2023-09-11T14:12:46.913Z,42.97
2023-09-11T14:17:49.962Z,43.26
2023-09-11T14:22:53.541Z,43.45
2023-09-11T14:27:56.562Z,43.89
2023-09-11T14:33:01.056Z,44.31
2023-09-11T14:38:04.516Z,44.39
2023-09-11T14:43:07.552Z,44.91
2023-09-11T14:48:10.695Z,45.27
2023-09-11T14:53:17.695Z,45.78
2023-09-11T14:58:20.738Z,45.72
2023-09-11T15:03:24.046Z,45.81
2023-09-11T15:08:28.166Z,45.91
2023-09-11T15:13:32.122Z,46.18
2023-09-11T15:18:35.471Z,46.33
2023-09-11T15:23:38.663Z,46.68
2023-09-11T15:28:42.059Z,46.99
2023-09-11T15:33:45.583Z,47.39
2023-09-11T15:38:48.635Z,47.76
2023-09-11T15:43:51.684Z,48.25
2023-09-11T15:48:54.854Z,48.63
2023-09-11T15:53:58.202Z,49.11
2023-09-11T15:59:01.330Z,49.77
2023-09-11T16:04:04.573Z,50.67
2023-09-11T16:09:07.907Z,51.30
2023-09-11T16:14:11.057Z,52.13
2023-09-11T16:19:14.286Z,52.74
2023-09-11T16:24:17.320Z,52.87
2023-09-11T16:29:20.590Z,53.40
2023-09-11T16:34:23.805Z,54.00
2023-09-11T16:39:26.933Z,55.39
2023-09-11T16:44:30.357Z,56.13
2023-09-11T16:49:33.443Z,56.86
2023-09-11T16:54:36.753Z,57.25
2023-09-11T16:59:40.307Z,57.85
2023-09-11T17:04:43.651Z,58.22
2023-09-11T17:09:48.750Z,58.28
2023-09-11T17:14:54.681Z,59.17
2023-09-11T17:19:58.037Z,61.89
2023-09-11T17:25:01.258Z,63.16
2023-09-11T17:30:04.779Z,63.74
2023-09-11T17:35:08.348Z,64.10
2023-09-11T17:40:12.307Z,64.98
2023-09-11T17:45:15.595Z,65.75
2023-09-11T17:50:18.834Z,66.44
2023-09-11T17:55:21.955Z,67.01
2023-09-11T18:00:26.942Z,67.79
2023-09-11T18:05:30.835Z,68.10
2023-09-11T18:10:33.937Z,68.22
2023-09-11T18:15:38.398Z,69.29
2023-09-11T18:20:43.133Z,71.08
2023-09-11T18:25:46.443Z,71.37
2023-09-11T18:30:49.982Z,71.64
2023-09-11T18:35:55.473Z,72.46
2023-09-11T18:40:59.924Z,71.82
2023-09-11T18:46:03.332Z,71.81
2023-09-11T18:51:07.275Z,72.36
2023-09-11T18:56:10.635Z,72.72
2023-09-11T19:01:14.187Z,73.50
2023-09-11T19:06:20.672Z,73.78
2023-09-11T19:11:24.049Z,73.85
2023-09-11T19:16:27.238Z,74.85
2023-09-11T19:21:31.433Z,76.26
2023-09-11T19:26:35.249Z,75.65
2023-09-11T19:31:38.522Z,75.38
2023-09-11T19:36:41.841Z,76.72
2023-09-11T19:41:45.165Z,76.89
2023-09-11T19:46:49.102Z,77.22
2023-09-11T19:51:52.315Z,77.42
2023-09-11T19:56:55.608Z,78.45
2023-09-11T20:01:58.865Z,79.47
2023-09-11T20:07:01.928Z,78.99
2023-09-11T20:12:08.015Z,78.99
2023-09-11T20:17:11.225Z,79.31
2023-09-11T20:22:14.432Z,79.78
2023-09-11T20:27:17.713Z,80.16
2023-09-11T20:32:20.959Z,80.55
2023-09-11T20:37:24.270Z,80.59
2023-09-11T20:42:28.004Z,80.21
2023-09-11T20:47:31.219Z,80.06
2023-09-11T20:52:34.414Z,81.37
2023-09-11T20:57:37.528Z,82.03
2023-09-11T21:02:40.657Z,82.51
2023-09-11T21:07:45.495Z,82.58
2023-09-11T21:12:56.936Z,82.67
2023-09-11T21:18:00.077Z,82.89
2023-09-11T21:23:04.241Z,83.20
2023-09-11T21:28:07.857Z,83.37
2023-09-11T21:33:10.896Z,83.18
2023-09-11T21:38:14.074Z,84.30
2023-09-11T21:43:17.199Z,83.87
2023-09-11T21:48:20.309Z,83.97
2023-09-11T21:53:23.511Z,84.37
2023-09-11T21:58:27.023Z,84.31
2023-09-11T22:03:30.158Z,84.11
2023-09-11T22:08:33.851Z,82.82
2023-09-11T22:13:36.859Z,83.11
2023-09-11T22:18:40.115Z,82.70
2023-09-11T22:23:43.649Z,82.92
2023-09-11T22:28:47.016Z,84.40
2023-09-11T22:33:50.132Z,84.97
2023-09-11T22:38:53.335Z,85.39
2023-09-11T22:43:56.334Z,85.64
2023-09-11T22:48:59.352Z,85.44
2023-09-11T22:54:02.505Z,86.33
2023-09-11T22:59:05.680Z,86.51
2023-09-11T23:04:10.746Z,87.25
2023-09-11T23:09:14.296Z,87.18
2023-09-11T23:14:17.343Z,87.51
2023-09-11T23:19:20.453Z,87.55
2023-09-11T23:24:23.491Z,87.72
2023-09-11T23:29:26.722Z,87.85
2023-09-11T23:34:29.880Z,87.65
2023-09-11T23:39:32.925Z,87.57
2023-09-11T23:44:36.104Z,87.61
2023-09-11T23:49:39.228Z,87.55
2023-09-11T23:54:42.423Z,87.58
2023-09-11T23:59:45.430Z,87.65
